sensor_id;sensor_type;location;lat;lon;timestamp;temperature;humidity
5520;DHT22;2782;52.362;10.012;2022-07-23T00:02:36;21.60;64.70
5520;DHT22;2782;52.362;10.012;2022-07-23T00:09:18;21.50;64.90
5520;DHT22;2782;52.362;10.012;2022-07-23T00:16:01;21.50;65.30
5520;DHT22;2782;52.362;10.012;2022-07-23T00:22:47;21.50;65.10
5520;DHT22;2782;52.362;10.012;2022-07-23T00:29:29;21.50;65.50
5520;DHT22;2782;52.362;10.012;2022-07-23T00:36:11;21.50;65.60
5520;DHT22;2782;52.362;10.012;2022-07-23T00:42:57;21.50;65.60
5520;DHT22;2782;52.362;10.012;2022-07-23T00:49:39;21.40;65.70
5520;DHT22;2782;52.362;10.012;2022-07-23T00:56:25;21.40;65.60
5520;DHT22;2782;52.362;10.012;2022-07-23T01:03:08;21.40;65.50
5520;DHT22;2782;52.362;10.012;2022-07-23T01:09:51;21.40;66.00
5520;DHT22;2782;52.362;10.012;2022-07-23T01:16:34;21.50;66.10
5520;DHT22;2782;52.362;10.012;2022-07-23T01:23:17;21.60;65.60
5520;DHT22;2782;52.362;10.012;2022-07-23T01:30:11;21.70;64.90
5520;DHT22;2782;52.362;10.012;2022-07-23T01:37:04;21.60;64.90
5520;DHT22;2782;52.362;10.012;2022-07-23T01:43:48;21.60;64.80
5520;DHT22;2782;52.362;10.012;2022-07-23T01:50:30;21.60;64.50
5520;DHT22;2782;52.362;10.012;2022-07-23T01:57:13;21.60;63.70
5520;DHT22;2782;52.362;10.012;2022-07-23T02:03:56;21.60;63.40
5520;DHT22;2782;52.362;10.012;2022-07-23T02:10:40;21.50;63.50
5520;DHT22;2782;52.362;10.012;2022-07-23T02:17:25;21.50;63.80
5520;DHT22;2782;52.362;10.012;2022-07-23T02:24:09;21.50;63.30
5520;DHT22;2782;52.362;10.012;2022-07-23T02:30:50;21.50;62.80
5520;DHT22;2782;52.362;10.012;2022-07-23T02:37:32;21.40;62.30
5520;DHT22;2782;52.362;10.012;2022-07-23T02:44:16;21.40;62.80
5520;DHT22;2782;52.362;10.012;2022-07-23T02:50:57;21.40;63.20
5520;DHT22;2782;52.362;10.012;2022-07-23T02:57:40;21.40;62.70
5520;DHT22;2782;52.362;10.012;2022-07-23T03:04:24;21.30;62.50
5520;DHT22;2782;52.362;10.012;2022-07-23T03:11:09;21.30;62.70
5520;DHT22;2782;52.362;10.012;2022-07-23T03:17:52;21.30;62.90
5520;DHT22;2782;52.362;10.012;2022-07-23T03:24:36;21.30;63.10
5520;DHT22;2782;52.362;10.012;2022-07-23T03:31:35;21.30;63.40
5520;DHT22;2782;52.362;10.012;2022-07-23T03:38:17;21.40;63.70
5520;DHT22;2782;52.362;10.012;2022-07-23T03:45:00;21.40;63.70
5520;DHT22;2782;52.362;10.012;2022-07-23T03:51:42;21.40;64.00
5520;DHT22;2782;52.362;10.012;2022-07-23T03:58:24;21.40;64.40
5520;DHT22;2782;52.362;10.012;2022-07-23T04:05:08;21.40;64.50
5520;DHT22;2782;52.362;10.012;2022-07-23T04:11:51;21.40;64.70
5520;DHT22;2782;52.362;10.012;2022-07-23T04:18:33;21.40;65.00
5520;DHT22;2782;52.362;10.012;2022-07-23T04:25:19;21.30;64.90
5520;DHT22;2782;52.362;10.012;2022-07-23T04:32:01;21.40;65.00
5520;DHT22;2782;52.362;10.012;2022-07-23T04:38:43;21.40;65.30
5520;DHT22;2782;52.362;10.012;2022-07-23T04:45:27;21.40;65.40
5520;DHT22;2782;52.362;10.012;2022-07-23T04:52:09;21.40;65.50
5520;DHT22;2782;52.362;10.012;2022-07-23T04:58:51;21.50;65.60
5520;DHT22;2782;52.362;10.012;2022-07-23T05:05:38;21.50;65.60
5520;DHT22;2782;52.362;10.012;2022-07-23T05:12:21;21.60;65.60
5520;DHT22;2782;52.362;10.012;2022-07-23T05:19:03;21.60;65.50
5520;DHT22;2782;52.362;10.012;2022-07-23T05:25:47;21.60;65.50
5520;DHT22;2782;52.362;10.012;2022-07-23T05:32:29;21.60;65.50
5520;DHT22;2782;52.362;10.012;2022-07-23T05:39:12;21.60;65.60
5520;DHT22;2782;52.362;10.012;2022-07-23T05:45:55;21.60;66.00
5520;DHT22;2782;52.362;10.012;2022-07-23T05:52:37;21.70;65.90
5520;DHT22;2782;52.362;10.012;2022-07-23T05:59:19;21.80;65.60
5520;DHT22;2782;52.362;10.012;2022-07-23T06:06:04;21.80;65.50
5520;DHT22;2782;52.362;10.012;2022-07-23T06:12:46;21.70;65.30
5520;DHT22;2782;52.362;10.012;2022-07-23T06:19:29;21.70;65.50
5520;DHT22;2782;52.362;10.012;2022-07-23T06:26:13;21.70;65.70
5520;DHT22;2782;52.362;10.012;2022-07-23T06:32:56;21.70;65.50
5520;DHT22;2782;52.362;10.012;2022-07-23T06:39:38;21.80;65.30
5520;DHT22;2782;52.362;10.012;2022-07-23T06:46:22;22.00;64.60
5520;DHT22;2782;52.362;10.012;2022-07-23T06:53:03;22.10;64.10
5520;DHT22;2782;52.362;10.012;2022-07-23T06:59:45;22.10;63.50
5520;DHT22;2782;52.362;10.012;2022-07-23T07:06:30;22.00;63.10
5520;DHT22;2782;52.362;10.012;2022-07-23T07:13:13;22.00;63.20
5520;DHT22;2782;52.362;10.012;2022-07-23T07:19:55;22.10;62.70
5520;DHT22;2782;52.362;10.012;2022-07-23T07:26:39;22.20;62.40
5520;DHT22;2782;52.362;10.012;2022-07-23T07:33:21;22.30;62.30
5520;DHT22;2782;52.362;10.012;2022-07-23T07:40:03;22.40;62.30
5520;DHT22;2782;52.362;10.012;2022-07-23T07:46:47;22.50;62.20
5520;DHT22;2782;52.362;10.012;2022-07-23T07:53:30;22.50;62.00
5520;DHT22;2782;52.362;10.012;2022-07-23T08:00:13;22.50;60.90
5520;DHT22;2782;52.362;10.012;2022-07-23T08:06:58;22.50;61.20
5520;DHT22;2782;52.362;10.012;2022-07-23T08:13:40;22.60;61.60
5520;DHT22;2782;52.362;10.012;2022-07-23T08:20:25;22.50;61.30
5520;DHT22;2782;52.362;10.012;2022-07-23T08:27:08;22.60;61.20
5520;DHT22;2782;52.362;10.012;2022-07-23T08:33:50;22.60;61.10
5520;DHT22;2782;52.362;10.012;2022-07-23T08:40:35;22.60;61.20
5520;DHT22;2782;52.362;10.012;2022-07-23T08:47:18;22.60;61.10
5520;DHT22;2782;52.362;10.012;2022-07-23T08:54:03;22.70;61.00
5520;DHT22;2782;52.362;10.012;2022-07-23T09:00:47;22.70;61.20
5520;DHT22;2782;52.362;10.012;2022-07-23T09:07:30;22.70;61.00
5520;DHT22;2782;52.362;10.012;2022-07-23T09:14:12;22.70;60.90
5520;DHT22;2782;52.362;10.012;2022-07-23T09:21:06;22.70;60.80
5520;DHT22;2782;52.362;10.012;2022-07-23T09:27:52;22.70;60.50
5520;DHT22;2782;52.362;10.012;2022-07-23T09:34:36;22.70;60.50
5520;DHT22;2782;52.362;10.012;2022-07-23T09:41:20;22.70;60.10
5520;DHT22;2782;52.362;10.012;2022-07-23T09:48:13;22.70;60.10
5520;DHT22;2782;52.362;10.012;2022-07-23T09:54:58;22.70;59.60
5520;DHT22;2782;52.362;10.012;2022-07-23T10:01:42;22.70;59.70
5520;DHT22;2782;52.362;10.012;2022-07-23T10:08:25;22.70;59.00
5520;DHT22;2782;52.362;10.012;2022-07-23T10:15:15;22.70;59.00
5520;DHT22;2782;52.362;10.012;2022-07-23T10:22:00;22.70;58.90
5520;DHT22;2782;52.362;10.012;2022-07-23T10:28:56;22.70;58.50
5520;DHT22;2782;52.362;10.012;2022-07-23T10:35:47;22.70;57.00
5520;DHT22;2782;52.362;10.012;2022-07-23T10:42:34;22.70;56.80
5520;DHT22;2782;52.362;10.012;2022-07-23T10:49:28;22.70;57.00
5520;DHT22;2782;52.362;10.012;2022-07-23T10:56:13;22.70;57.00
5520;DHT22;2782;52.362;10.012;2022-07-23T11:02:56;22.70;57.00
5520;DHT22;2782;52.362;10.012;2022-07-23T11:09:43;22.70;56.90
5520;DHT22;2782;52.362;10.012;2022-07-23T11:16:27;22.70;56.70
5520;DHT22;2782;52.362;10.012;2022-07-23T11:23:10;22.70;56.10
5520;DHT22;2782;52.362;10.012;2022-07-23T11:29:53;22.70;56.60
5520;DHT22;2782;52.362;10.012;2022-07-23T11:36:48;22.70;56.30
5520;DHT22;2782;52.362;10.012;2022-07-23T11:43:30;22.70;56.00
5520;DHT22;2782;52.362;10.012;2022-07-23T11:50:14;22.70;55.10
5520;DHT22;2782;52.362;10.012;2022-07-23T11:56:56;22.70;55.50
5520;DHT22;2782;52.362;10.012;2022-07-23T12:03:49;22.70;55.80
5520;DHT22;2782;52.362;10.012;2022-07-23T12:10:36;22.70;55.80
5520;DHT22;2782;52.362;10.012;2022-07-23T12:17:19;22.70;54.80
5520;DHT22;2782;52.362;10.012;2022-07-23T12:24:06;22.70;55.50
5520;DHT22;2782;52.362;10.012;2022-07-23T12:30:51;22.70;55.90
5520;DHT22;2782;52.362;10.012;2022-07-23T12:37:38;22.70;54.80
5520;DHT22;2782;52.362;10.012;2022-07-23T12:44:22;22.70;55.20
5520;DHT22;2782;52.362;10.012;2022-07-23T12:51:08;22.70;55.40
5520;DHT22;2782;52.362;10.012;2022-07-23T12:58:06;22.70;54.70
5520;DHT22;2782;52.362;10.012;2022-07-23T13:04:51;22.70;55.10
5520;DHT22;2782;52.362;10.012;2022-07-23T13:11:36;22.70;55.30
5520;DHT22;2782;52.362;10.012;2022-07-23T13:18:19;22.70;55.60
5520;DHT22;2782;52.362;10.012;2022-07-23T13:25:01;22.70;56.00
5520;DHT22;2782;52.362;10.012;2022-07-23T13:31:44;22.70;56.20
5520;DHT22;2782;52.362;10.012;2022-07-23T13:38:29;22.70;56.20
5520;DHT22;2782;52.362;10.012;2022-07-23T13:45:10;22.80;56.40
5520;DHT22;2782;52.362;10.012;2022-07-23T13:51:54;22.80;57.20
5520;DHT22;2782;52.362;10.012;2022-07-23T13:58:36;22.80;57.20
5520;DHT22;2782;52.362;10.012;2022-07-23T14:05:19;22.80;57.40
5520;DHT22;2782;52.362;10.012;2022-07-23T14:12:03;22.80;57.50
5520;DHT22;2782;52.362;10.012;2022-07-23T14:18:44;22.90;57.70
5520;DHT22;2782;52.362;10.012;2022-07-23T14:25:26;22.90;57.70
5520;DHT22;2782;52.362;10.012;2022-07-23T14:32:09;22.90;57.00
5520;DHT22;2782;52.362;10.012;2022-07-23T14:38:53;22.90;56.90
5520;DHT22;2782;52.362;10.012;2022-07-23T14:45:35;22.90;56.80
5520;DHT22;2782;52.362;10.012;2022-07-23T14:52:18;22.90;56.20
5520;DHT22;2782;52.362;10.012;2022-07-23T14:59:01;22.90;56.20
5520;DHT22;2782;52.362;10.012;2022-07-23T15:05:43;23.00;56.20
5520;DHT22;2782;52.362;10.012;2022-07-23T15:12:26;23.00;56.30
5520;DHT22;2782;52.362;10.012;2022-07-23T15:19:08;23.00;56.20
5520;DHT22;2782;52.362;10.012;2022-07-23T15:25:50;23.00;56.50
5520;DHT22;2782;52.362;10.012;2022-07-23T15:32:33;23.00;56.40
5520;DHT22;2782;52.362;10.012;2022-07-23T15:39:15;23.00;56.20
5520;DHT22;2782;52.362;10.012;2022-07-23T15:45:57;23.10;56.30
5520;DHT22;2782;52.362;10.012;2022-07-23T15:52:41;23.10;56.60
5520;DHT22;2782;52.362;10.012;2022-07-23T15:59:23;23.10;57.40
5520;DHT22;2782;52.362;10.012;2022-07-23T16:06:06;23.10;57.40
5520;DHT22;2782;52.362;10.012;2022-07-23T16:12:49;23.10;57.40
5520;DHT22;2782;52.362;10.012;2022-07-23T16:19:31;23.20;57.10
5520;DHT22;2782;52.362;10.012;2022-07-23T16:26:16;23.20;56.30
5520;DHT22;2782;52.362;10.012;2022-07-23T16:32:59;23.20;55.90
5520;DHT22;2782;52.362;10.012;2022-07-23T16:39:44;23.20;55.10
5520;DHT22;2782;52.362;10.012;2022-07-23T16:46:27;23.20;55.60
5520;DHT22;2782;52.362;10.012;2022-07-23T16:53:10;23.20;55.90
5520;DHT22;2782;52.362;10.012;2022-07-23T16:59:52;23.20;56.30
5520;DHT22;2782;52.362;10.012;2022-07-23T17:06:35;23.20;56.60
5520;DHT22;2782;52.362;10.012;2022-07-23T17:13:18;23.10;56.80
5520;DHT22;2782;52.362;10.012;2022-07-23T17:20:03;23.10;56.80
5520;DHT22;2782;52.362;10.012;2022-07-23T17:26:46;23.10;56.70
5520;DHT22;2782;52.362;10.012;2022-07-23T17:33:29;23.10;57.20
5520;DHT22;2782;52.362;10.012;2022-07-23T17:40:11;23.10;56.80
5520;DHT22;2782;52.362;10.012;2022-07-23T17:46:54;23.10;56.90
5520;DHT22;2782;52.362;10.012;2022-07-23T17:53:37;23.10;57.10
5520;DHT22;2782;52.362;10.012;2022-07-23T18:00:22;23.10;57.30
5520;DHT22;2782;52.362;10.012;2022-07-23T18:07:04;23.10;57.70
5520;DHT22;2782;52.362;10.012;2022-07-23T18:13:47;23.10;57.90
5520;DHT22;2782;52.362;10.012;2022-07-23T18:20:29;23.10;58.10
5520;DHT22;2782;52.362;10.012;2022-07-23T18:27:11;23.00;58.60
5520;DHT22;2782;52.362;10.012;2022-07-23T18:33:54;23.00;57.90
5520;DHT22;2782;52.362;10.012;2022-07-23T18:40:36;23.00;57.80
5520;DHT22;2782;52.362;10.012;2022-07-23T18:47:20;23.00;57.80
5520;DHT22;2782;52.362;10.012;2022-07-23T18:54:03;23.00;57.80
5520;DHT22;2782;52.362;10.012;2022-07-23T19:00:48;23.00;57.10
5520;DHT22;2782;52.362;10.012;2022-07-23T19:07:30;23.00;56.60
5520;DHT22;2782;52.362;10.012;2022-07-23T19:14:13;23.00;56.20
5520;DHT22;2782;52.362;10.012;2022-07-23T19:20:55;23.00;56.20
5520;DHT22;2782;52.362;10.012;2022-07-23T19:27:36;23.00;56.10
5520;DHT22;2782;52.362;10.012;2022-07-23T19:34:19;22.90;56.20
5520;DHT22;2782;52.362;10.012;2022-07-23T19:41:02;22.90;56.30
5520;DHT22;2782;52.362;10.012;2022-07-23T19:47:45;22.90;56.40
5520;DHT22;2782;52.362;10.012;2022-07-23T19:54:29;22.90;56.40
5520;DHT22;2782;52.362;10.012;2022-07-23T20:01:10;22.90;56.30
5520;DHT22;2782;52.362;10.012;2022-07-23T20:07:52;22.90;56.50
5520;DHT22;2782;52.362;10.012;2022-07-23T20:14:36;22.90;56.40
5520;DHT22;2782;52.362;10.012;2022-07-23T20:21:19;22.90;56.40
5520;DHT22;2782;52.362;10.012;2022-07-23T20:28:01;22.80;56.00
5520;DHT22;2782;52.362;10.012;2022-07-23T20:34:45;22.80;56.00
5520;DHT22;2782;52.362;10.012;2022-07-23T20:41:26;22.80;56.00
5520;DHT22;2782;52.362;10.012;2022-07-23T20:48:09;22.70;55.80
5520;DHT22;2782;52.362;10.012;2022-07-23T20:54:53;22.70;55.90
5520;DHT22;2782;52.362;10.012;2022-07-23T21:01:35;22.70;55.90
5520;DHT22;2782;52.362;10.012;2022-07-23T21:08:17;22.60;55.80
5520;DHT22;2782;52.362;10.012;2022-07-23T21:15:01;22.60;55.90
5520;DHT22;2782;52.362;10.012;2022-07-23T21:21:45;22.60;55.90
5520;DHT22;2782;52.362;10.012;2022-07-23T21:28:27;22.50;55.80
5520;DHT22;2782;52.362;10.012;2022-07-23T21:35:11;22.50;55.90
5520;DHT22;2782;52.362;10.012;2022-07-23T21:41:54;22.50;56.00
5520;DHT22;2782;52.362;10.012;2022-07-23T21:48:37;22.50;55.90
5520;DHT22;2782;52.362;10.012;2022-07-23T21:55:22;22.50;55.60
5520;DHT22;2782;52.362;10.012;2022-07-23T22:02:05;22.40;55.60
5520;DHT22;2782;52.362;10.012;2022-07-23T22:08:47;22.40;55.60
5520;DHT22;2782;52.362;10.012;2022-07-23T22:15:31;22.40;55.60
5520;DHT22;2782;52.362;10.012;2022-07-23T22:22:12;22.40;55.60
5520;DHT22;2782;52.362;10.012;2022-07-23T22:28:54;22.40;55.40
5520;DHT22;2782;52.362;10.012;2022-07-23T22:35:38;22.30;56.00
5520;DHT22;2782;52.362;10.012;2022-07-23T22:42:20;22.30;56.30
5520;DHT22;2782;52.362;10.012;2022-07-23T22:49:02;22.30;56.60
5520;DHT22;2782;52.362;10.012;2022-07-23T22:55:45;22.40;56.50
5520;DHT22;2782;52.362;10.012;2022-07-23T23:02:27;22.40;56.40
5520;DHT22;2782;52.362;10.012;2022-07-23T23:09:09;22.40;57.00
5520;DHT22;2782;52.362;10.012;2022-07-23T23:15:55;22.50;56.90
5520;DHT22;2782;52.362;10.012;2022-07-23T23:22:37;22.50;56.90
5520;DHT22;2782;52.362;10.012;2022-07-23T23:29:19;22.60;57.60
5520;DHT22;2782;52.362;10.012;2022-07-23T23:36:03;22.60;57.80
5520;DHT22;2782;52.362;10.012;2022-07-23T23:42:45;22.60;57.30
5520;DHT22;2782;52.362;10.012;2022-07-23T23:49:27;22.70;57.50
5520;DHT22;2782;52.362;10.012;2022-07-23T23:56:14;22.70;57.70
